Time;durP1;ratioP1;P1;durP2;ratioP2;P2;SDS_P1;SDS_P2;PMS_P1;PMS_P2;Temp;Humidity;BMP_temperature;BMP_pressure;BME280_temperature;BME280_humidity;BME280_pressure;Samples;Min_cycle;Max_cycle;Signal;HPM_P1;HPM_P2
2021/01/09 00:00:44;;;;;;;12.35;7.85;;;9.90;63.00;;;;;;5103330;28;20031;-68
2021/01/09 00:03:10;;;;;;;12.18;7.78;;;9.90;62.30;;;;;;5103292;28;20028;-68
2021/01/09 00:05:36;;;;;;;13.77;9.23;;;9.90;62.40;;;;;;5103221;28;20331;-66
2021/01/09 00:08:01;;;;;;;12.20;7.72;;;9.90;62.30;;;;;;5118921;28;20012;-67
2021/01/09 00:10:27;;;;;;;14.13;9.32;;;9.80;62.30;;;;;;5103068;28;20023;-66
2021/01/09 00:12:53;;;;;;;12.32;7.70;;;9.90;62.20;;;;;;5103094;28;20066;-67
2021/01/09 00:15:19;;;;;;;11.95;7.85;;;9.80;62.30;;;;;;5102825;28;20036;-65
2021/01/09 00:17:44;;;;;;;12.77;9.00;;;9.80;62.50;;;;;;5103022;28;20163;-68
2021/01/09 00:20:12;;;;;;;10.93;7.90;;;9.80;62.50;;;;;;5102383;28;20028;-68
2021/01/09 00:22:38;;;;;;;12.15;8.48;;;9.80;62.60;;;;;;5102810;28;20031;-65
2021/01/09 00:25:06;;;;;;;12.07;8.27;;;9.80;62.50;;;;;;5102894;28;20020;-68
2021/01/09 00:27:32;;;;;;;12.23;7.88;;;9.80;62.70;;;;;;5102794;28;20016;-68
2021/01/09 00:29:58;;;;;;;10.80;7.43;;;9.80;62.30;;;;;;5102735;28;20026;-67
2021/01/09 00:32:23;;;;;;;13.00;8.50;;;9.90;62.20;;;;;;5102762;28;20016;-67
2021/01/09 00:34:49;;;;;;;13.75;9.07;;;9.90;62.20;;;;;;5102542;28;20032;-65
2021/01/09 00:37:16;;;;;;;14.82;8.93;;;9.80;62.30;;;;;;5102687;28;20103;-64
2021/01/09 00:39:45;;;;;;;12.05;8.18;;;9.80;62.30;;;;;;5102602;28;20019;-67
2021/01/09 00:42:11;;;;;;;12.35;7.95;;;9.80;62.30;;;;;;5102557;28;20027;-66
2021/01/09 00:44:36;;;;;;;15.38;8.98;;;9.80;62.30;;;;;;5102567;28;20035;-66
2021/01/09 00:47:02;;;;;;;15.18;8.90;;;9.80;62.50;;;;;;5102519;28;20016;-67
2021/01/09 00:49:28;;;;;;;14.65;8.65;;;9.80;62.50;;;;;;5102369;28;20012;-64
2021/01/09 00:51:54;;;;;;;13.25;9.05;;;9.80;62.40;;;;;;5102453;28;20023;-68
2021/01/09 00:54:20;;;;;;;15.18;8.68;;;9.80;62.40;;;;;;5102301;28;20095;-68
2021/01/09 00:56:55;;;;;;;13.32;8.60;;;9.80;62.30;;;;;;5102425;28;20357;-66
2021/01/09 00:59:24;;;;;;;10.27;7.18;;;9.80;62.40;;;;;;5102378;28;20049;-68
2021/01/09 01:01:51;;;;;;;10.75;7.93;;;9.80;62.30;;;;;;5102258;28;20023;-65
2021/01/09 01:04:17;;;;;;;15.48;9.15;;;9.80;62.40;;;;;;5102298;28;20016;-63
2021/01/09 01:06:43;;;;;;;17.88;9.15;;;9.80;62.20;;;;;;5102317;28;20216;-69
2021/01/09 01:09:12;;;;;;;13.35;7.97;;;9.80;62.20;;;;;;5102217;28;20027;-67
2021/01/09 01:11:40;;;;;;;12.75;8.38;;;9.80;62.10;;;;;;5102505;28;20427;-68
2021/01/09 01:14:06;;;;;;;13.38;7.93;;;9.80;62.20;;;;;;5102124;28;20036;-65
2021/01/09 01:16:31;;;;;;;14.35;8.98;;;9.80;62.10;;;;;;5101993;28;20047;-66
2021/01/09 01:18:57;;;;;;;10.00;7.15;;;9.80;62.10;;;;;;5102186;28;20024;-65
2021/01/09 01:21:23;;;;;;;12.93;8.30;;;9.80;62.30;;;;;;5102180;28;20057;-67
2021/01/09 01:23:49;;;;;;;13.82;8.73;;;9.80;62.40;;;;;;5102068;28;20024;-66
2021/01/09 01:26:15;;;;;;;12.32;8.15;;;9.70;62.60;;;;;;5102086;28;20030;-65
2021/01/09 01:28:41;;;;;;;12.55;8.32;;;9.80;62.60;;;;;;5102053;28;20091;-66
2021/01/09 01:31:10;;;;;;;13.25;8.52;;;9.80;62.60;;;;;;5102827;28;20020;-65
2021/01/09 01:33:40;;;;;;;15.27;9.05;;;9.80;62.30;;;;;;5106397;28;20024;-67
2021/01/09 01:36:11;;;;;;;12.25;7.75;;;9.80;62.10;;;;;;5106033;28;20028;-64
2021/01/09 01:38:37;;;;;;;14.43;8.68;;;9.80;62.10;;;;;;5106023;28;20081;-63
2021/01/09 01:41:04;;;;;;;15.63;9.38;;;9.80;62.00;;;;;;5105965;28;20031;-65
2021/01/09 01:43:30;;;;;;;15.88;8.82;;;9.80;62.00;;;;;;5105890;28;20023;-67
2021/01/09 01:45:58;;;;;;;14.07;8.75;;;9.80;62.40;;;;;;5105922;28;20028;-66
2021/01/09 01:48:24;;;;;;;12.77;7.70;;;9.80;62.40;;;;;;5105919;28;20026;-68
2021/01/09 01:50:50;;;;;;;13.70;8.75;;;9.80;62.50;;;;;;5105781;28;20028;-68
2021/01/09 01:53:17;;;;;;;12.95;7.95;;;9.80;62.50;;;;;;5105755;28;20031;-67
2021/01/09 01:55:44;;;;;;;13.40;8.75;;;9.80;62.50;;;;;;5105679;28;20016;-66
2021/01/09 01:58:10;;;;;;;17.17;9.65;;;9.80;62.30;;;;;;5105656;28;20020;-67
2021/01/09 02:00:36;;;;;;;12.95;8.48;;;9.80;62.20;;;;;;5121403;28;20027;-67
2021/01/09 02:03:02;;;;;;;15.48;10.05;;;9.80;62.30;;;;;;5105557;28;20027;-67
2021/01/09 02:05:36;;;;;;;15.93;9.43;;;9.80;62.20;;;;;;5105488;28;20339;-67
2021/01/09 02:08:06;;;;;;;13.60;8.98;;;9.80;62.20;;;;;;5105484;28;20326;-67
2021/01/09 02:10:32;;;;;;;13.20;8.73;;;9.80;62.20;;;;;;5105429;28;20016;-68
2021/01/09 02:13:07;;;;;;;14.32;9.25;;;9.80;62.10;;;;;;5105358;28;20243;-66
2021/01/09 02:15:34;;;;;;;15.88;9.50;;;9.80;62.20;;;;;;5105141;28;20125;-67
2021/01/09 02:18:01;;;;;;;16.45;9.23;;;9.80;62.30;;;;;;5105234;28;20028;-65
2021/01/09 02:20:28;;;;;;;11.68;8.25;;;9.80;62.20;;;;;;5105183;28;20177;-65
2021/01/09 02:22:55;;;;;;;16.10;9.75;;;9.70;62.30;;;;;;5105161;28;20008;-67
2021/01/09 02:25:21;;;;;;;13.93;9.15;;;9.70;62.20;;;;;;5105123;28;20024;-65
2021/01/09 02:27:47;;;;;;;15.75;9.30;;;9.70;62.30;;;;;;5105035;28;20020;-65
2021/01/09 02:30:15;;;;;;;13.07;8.43;;;9.80;62.40;;;;;;5104985;28;20092;-66
2021/01/09 02:33:07;;;;;;;16.15;9.52;;;9.70;62.70;;;;;;5104938;28;20034;-66
2021/01/09 02:35:35;;;;;;;16.25;8.95;;;9.80;62.60;;;;;;5104846;28;20075;-68
2021/01/09 02:38:01;;;;;;;13.30;9.20;;;9.80;62.20;;;;;;5104932;28;20039;-66
2021/01/09 02:40:27;;;;;;;16.15;9.18;;;9.80;62.10;;;;;;5104828;28;20300;-67
2021/01/09 02:42:53;;;;;;;12.95;8.43;;;9.80;62.00;;;;;;5104313;28;20016;-66
2021/01/09 02:45:19;;;;;;;15.65;9.60;;;9.80;62.10;;;;;;5104750;28;20308;-66
2021/01/09 02:47:44;;;;;;;15.07;8.82;;;9.80;62.10;;;;;;5104746;28;20035;-68
2021/01/09 02:50:11;;;;;;;15.32;8.93;;;9.80;62.20;;;;;;5104707;28;20035;-67
2021/01/09 02:52:40;;;;;;;14.73;8.90;;;9.70;62.10;;;;;;5104650;28;20341;-65
2021/01/09 02:55:07;;;;;;;14.45;8.48;;;9.70;62.30;;;;;;5104546;28;20019;-67
2021/01/09 02:57:34;;;;;;;15.00;9.18;;;9.70;62.30;;;;;;5104553;28;20257;-68
2021/01/09 02:59:59;;;;;;;14.40;8.80;;;9.70;62.10;;;;;;5104432;28;20046;-66
2021/01/09 03:02:25;;;;;;;15.50;9.43;;;9.80;62.80;;;;;;5104707;28;20024;-66
2021/01/09 03:04:51;;;;;;;16.33;9.23;;;9.80;62.10;;;;;;5104367;28;20220;-65
2021/01/09 03:07:17;;;;;;;13.98;8.93;;;9.80;62.20;;;;;;5104630;28;20069;-64
2021/01/09 03:09:42;;;;;;;13.35;9.00;;;9.80;62.00;;;;;;5104293;28;20339;-68
2021/01/09 03:12:08;;;;;;;12.88;8.15;;;9.80;62.00;;;;;;5104232;28;20184;-65
2021/01/09 03:14:34;;;;;;;14.25;8.00;;;9.80;62.10;;;;;;5104173;28;20316;-68
2021/01/09 03:17:00;;;;;;;12.60;8.10;;;9.80;62.10;;;;;;5104039;28;20052;-66
2021/01/09 03:19:26;;;;;;;14.15;9.52;;;9.80;62.00;;;;;;5104089;28;20028;-66
2021/01/09 03:21:52;;;;;;;14.90;8.90;;;9.80;62.00;;;;;;5104042;28;20046;-67
2021/01/09 03:24:18;;;;;;;13.05;8.50;;;9.70;61.90;;;;;;5103982;28;20331;-66
2021/01/09 03:26:44;;;;;;;14.30;9.85;;;9.80;62.00;;;;;;5104002;28;20028;-68
2021/01/09 03:29:10;;;;;;;13.90;9.40;;;9.70;62.10;;;;;;5103896;28;20043;-64
2021/01/09 03:31:36;;;;;;;15.20;9.23;;;9.70;62.10;;;;;;5103892;28;20212;-66
2021/01/09 03:34:04;;;;;;;16.90;9.35;;;9.70;62.30;;;;;;5103674;28;20019;-66
2021/01/09 03:36:30;;;;;;;14.95;9.35;;;9.70;62.50;;;;;;5103725;28;20265;-66
2021/01/09 03:38:56;;;;;;;13.57;9.18;;;9.70;62.50;;;;;;5103683;28;20024;-68
2021/01/09 03:41:21;;;;;;;14.25;8.73;;;9.80;62.30;;;;;;5103596;28;20266;-68
2021/01/09 03:43:47;;;;;;;13.38;8.65;;;9.80;61.90;;;;;;5103597;28;20086;-66
2021/01/09 03:46:13;;;;;;;15.68;9.27;;;9.80;61.90;;;;;;5103535;28;20023;-67
2021/01/09 03:48:38;;;;;;;13.75;8.38;;;9.70;61.70;;;;;;5103534;28;20024;-68
2021/01/09 03:51:04;;;;;;;14.75;9.45;;;9.80;62.10;;;;;;5103501;28;20568;-68
2021/01/09 03:53:30;;;;;;;15.90;9.13;;;9.70;62.10;;;;;;5102658;28;20023;-66
2021/01/09 03:55:57;;;;;;;14.98;9.35;;;9.70;62.10;;;;;;5103207;28;20216;-66
2021/01/09 03:58:22;;;;;;;13.95;8.50;;;9.70;62.30;;;;;;5103661;28;20237;-68
2021/01/09 04:00:48;;;;;;;16.90;10.48;;;9.70;62.10;;;;;;5103270;28;20311;-64
2021/01/09 04:03:14;;;;;;;14.43;9.07;;;9.70;62.10;;;;;;5103249;28;20079;-67
2021/01/09 04:05:39;;;;;;;13.20;8.27;;;9.70;62.10;;;;;;5103133;28;20039;-67
2021/01/09 04:08:05;;;;;;;15.07;9.32;;;9.70;62.20;;;;;;5103158;28;20050;-68
2021/01/09 04:10:32;;;;;;;13.15;8.38;;;9.70;62.20;;;;;;5103051;28;20030;-65
2021/01/09 04:12:58;;;;;;;14.30;9.10;;;9.70;62.10;;;;;;5103076;28;20046;-67
2021/01/09 04:15:24;;;;;;;13.88;8.48;;;9.70;61.90;;;;;;5102854;28;20032;-68
2021/01/09 04:17:49;;;;;;;14.48;9.63;;;9.70;61.90;;;;;;5102978;28;20044;-67
2021/01/09 04:20:15;;;;;;;15.82;10.82;;;9.70;61.80;;;;;;5102873;28;20035;-69
2021/01/09 04:22:41;;;;;;;15.60;9.88;;;9.70;61.80;;;;;;5102846;28;20043;-66
2021/01/09 04:25:07;;;;;;;17.58;10.68;;;9.70;61.80;;;;;;5102847;28;20020;-68
2021/01/09 04:27:32;;;;;;;16.13;10.07;;;9.70;61.80;;;;;;5102748;28;20028;-68
2021/01/09 04:29:58;;;;;;;16.33;10.07;;;9.70;61.70;;;;;;5102748;28;20189;-66
2021/01/09 04:32:24;;;;;;;15.48;8.70;;;9.70;62.10;;;;;;5102769;28;20019;-67
2021/01/09 04:34:49;;;;;;;16.42;10.15;;;9.70;62.20;;;;;;5102548;28;20073;-68
2021/01/09 04:37:15;;;;;;;14.88;9.52;;;9.70;62.80;;;;;;5102630;28;20128;-67
2021/01/09 04:39:42;;;;;;;15.52;9.82;;;9.60;62.20;;;;;;5102600;28;20039;-67
2021/01/09 04:42:07;;;;;;;16.10;9.65;;;9.70;62.20;;;;;;5102619;28;20020;-66
2021/01/09 04:44:33;;;;;;;15.20;8.77;;;9.70;62.10;;;;;;5102510;28;20046;-68
2021/01/09 04:47:02;;;;;;;15.18;9.13;;;9.70;61.80;;;;;;5102501;28;20203;-66
2021/01/09 04:49:29;;;;;;;17.48;10.40;;;9.70;61.50;;;;;;5102451;28;20067;-66
2021/01/09 04:51:56;;;;;;;13.93;9.27;;;9.70;61.70;;;;;;5102453;28;20201;-67
2021/01/09 04:54:25;;;;;;;16.70;10.45;;;9.70;61.80;;;;;;5102291;28;20020;-68
2021/01/09 04:56:53;;;;;;;16.05;10.30;;;9.70;61.70;;;;;;5102340;28;20026;-66
2021/01/09 04:59:20;;;;;;;17.90;9.88;;;9.70;62.00;;;;;;5101110;28;20208;-66
2021/01/09 05:01:47;;;;;;;16.77;10.45;;;9.70;61.80;;;;;;5102338;28;20319;-65
2021/01/09 05:04:14;;;;;;;16.65;10.85;;;9.70;62.20;;;;;;5102287;28;20016;-67
2021/01/09 05:06:41;;;;;;;16.08;10.27;;;9.70;62.20;;;;;;5102104;28;20026;-67
2021/01/09 05:09:08;;;;;;;16.83;10.02;;;9.70;62.10;;;;;;5102160;28;20020;-63
2021/01/09 05:11:35;;;;;;;17.17;11.07;;;9.70;62.30;;;;;;5102174;28;20015;-68
2021/01/09 05:14:04;;;;;;;15.77;9.75;;;9.70;62.00;;;;;;5102043;28;20024;-65
2021/01/09 05:16:30;;;;;;;;;;;9.70;62.10;;;;;;5102387;28;20051;-66
2021/01/09 05:18:56;;;;;;;17.58;10.73;;;9.70;62.10;;;;;;5102130;28;19918;-67
2021/01/09 05:21:22;;;;;;;13.55;8.60;;;9.70;61.80;;;;;;5102078;28;20207;-68
2021/01/09 05:23:58;;;;;;;16.98;10.82;;;9.70;61.90;;;;;;5102075;28;20024;-68
2021/01/09 05:26:23;;;;;;;15.38;9.20;;;9.70;62.10;;;;;;5102092;28;20020;-68
2021/01/09 05:28:50;;;;;;;15.70;10.23;;;9.70;61.90;;;;;;5117860;28;20090;-65
2021/01/09 05:31:17;;;;;;;15.63;9.82;;;9.70;62.00;;;;;;5100796;28;20220;-65
2021/01/09 05:33:43;;;;;;;15.80;10.25;;;9.70;62.00;;;;;;5102006;28;20028;-66
2021/01/09 05:36:10;;;;;;;16.52;10.18;;;9.70;62.00;;;;;;5101866;28;20016;-65
2021/01/09 05:38:37;;;;;;;16.30;9.93;;;9.70;62.00;;;;;;5102059;28;20093;-66
2021/01/09 05:41:04;;;;;;;15.07;9.60;;;9.70;62.40;;;;;;5101923;28;20020;-66
2021/01/09 05:43:30;;;;;;;17.42;11.00;;;9.70;62.10;;;;;;5101878;28;20024;-67
2021/01/09 05:45:58;;;;;;;14.93;9.60;;;9.60;62.10;;;;;;5101912;28;20298;-67
2021/01/09 05:48:24;;;;;;;16.15;9.75;;;9.70;62.00;;;;;;5101901;28;20062;-68
2021/01/09 05:50:51;;;;;;;15.57;9.63;;;9.70;61.80;;;;;;5101766;28;20050;-67
2021/01/09 05:53:42;;;;;;;15.55;10.20;;;9.70;61.70;;;;;;5101777;28;20211;-67
2021/01/09 05:56:10;;;;;;;16.42;10.95;;;9.70;61.80;;;;;;5101747;28;20212;-64
2021/01/09 05:58:37;;;;;;;15.30;9.88;;;9.70;61.80;;;;;;5101728;28;20016;-68
2021/01/09 06:01:10;;;;;;;15.30;9.73;;;9.60;62.00;;;;;;5101746;28;20019;-68
2021/01/09 06:03:39;;;;;;;14.95;9.80;;;9.60;62.00;;;;;;5101815;28;20076;-67
2021/01/09 06:06:13;;;;;;;17.27;10.75;;;9.70;62.10;;;;;;5101732;28;20027;-65
2021/01/09 06:08:45;;;;;;;20.90;11.65;;;9.60;62.00;;;;;;5101711;28;20019;-66
2021/01/09 06:11:17;;;;;;;16.67;10.70;;;9.60;62.00;;;;;;5101617;28;20089;-66
2021/01/09 06:13:47;;;;;;;17.15;9.65;;;9.60;62.10;;;;;;5101657;28;20073;-66
2021/01/09 06:16:15;;;;;;;15.75;10.23;;;9.60;62.00;;;;;;5101415;28;20062;-66
2021/01/09 06:18:42;;;;;;;17.48;10.65;;;9.60;61.80;;;;;;5104646;28;20062;-65
2021/01/09 06:21:08;;;;;;;17.63;10.85;;;9.70;61.70;;;;;;5105270;28;20204;-66
2021/01/09 06:23:34;;;;;;;16.23;10.23;;;9.60;61.80;;;;;;5105143;28;20031;-68
2021/01/09 06:26:02;;;;;;;15.38;9.65;;;9.60;61.90;;;;;;5105080;28;20090;-65
2021/01/09 06:28:36;;;;;;;15.75;10.15;;;9.60;62.00;;;;;;5105060;28;20026;-66
2021/01/09 06:31:06;;;;;;;18.55;10.45;;;9.60;61.90;;;;;;5105048;28;20027;-66
2021/01/09 06:33:37;;;;;;;18.38;10.57;;;9.60;62.00;;;;;;5105002;28;20016;-67
2021/01/09 06:36:07;;;;;;;15.57;10.77;;;9.60;61.60;;;;;;5104905;28;20062;-66
2021/01/09 06:38:33;;;;;;;15.18;10.25;;;9.60;61.80;;;;;;5104860;28;20016;-65
2021/01/09 06:41:00;;;;;;;15.80;10.88;;;9.60;62.00;;;;;;5104822;28;20265;-66
2021/01/09 06:43:26;;;;;;;15.05;9.90;;;9.60;61.80;;;;;;5104779;28;20061;-65
2021/01/09 06:45:52;;;;;;;16.55;10.13;;;9.60;61.80;;;;;;5104751;28;20038;-67
2021/01/09 06:48:21;;;;;;;18.13;11.15;;;9.60;61.80;;;;;;5104680;28;20315;-67
2021/01/09 06:50:46;;;;;;;19.33;11.43;;;9.60;61.60;;;;;;5104736;28;20247;-65
2021/01/09 06:53:13;;;;;;;16.45;10.20;;;9.60;61.60;;;;;;5103438;28;20028;-68
2021/01/09 06:55:39;;;;;;;17.45;10.20;;;9.60;61.50;;;;;;5104406;28;20034;-67
2021/01/09 06:58:09;;;;;;;16.10;9.85;;;9.60;61.60;;;;;;5104520;28;20032;-66
2021/01/09 07:00:38;;;;;;;16.90;10.02;;;9.60;61.80;;;;;;5104825;28;20023;-67
2021/01/09 07:03:22;;;;;;;18.70;10.68;;;9.60;61.90;;;;;;5104489;28;20022;-68
2021/01/09 07:05:52;;;;;;;19.75;10.93;;;9.60;61.90;;;;;;5104373;28;20026;-67
2021/01/09 07:08:26;;;;;;;14.43;9.85;;;9.60;62.00;;;;;;5104364;28;20079;-66
2021/01/09 07:11:02;;;;;;;15.95;10.38;;;9.60;61.60;;;;;;5104315;28;20027;-66
2021/01/09 07:13:28;;;;;;;16.15;9.82;;;9.60;61.80;;;;;;5104298;28;20103;-66
2021/01/09 07:16:14;;;;;;;14.68;9.70;;;9.70;61.80;;;;;;5103808;28;20061;-67
2021/01/09 07:18:43;;;;;;;15.45;9.57;;;9.70;61.50;;;;;;5104364;28;20082;-65
2021/01/09 07:21:11;;;;;;;15.93;10.23;;;9.70;61.50;;;;;;5119906;28;20016;-65
2021/01/09 07:23:38;;;;;;;15.98;10.55;;;9.70;61.50;;;;;;5104054;28;20039;-65
2021/01/09 07:26:05;;;;;;;16.58;10.18;;;9.60;61.30;;;;;;5103989;28;20020;-68
2021/01/09 07:28:35;;;;;;;14.90;10.05;;;9.60;61.60;;;;;;5103837;28;20082;-65
2021/01/09 07:31:06;;;;;;;14.13;9.60;;;9.60;61.60;;;;;;5103840;28;20046;-66
2021/01/09 07:33:33;;;;;;;16.70;10.55;;;9.60;61.50;;;;;;5103870;28;20144;-68
2021/01/09 07:36:00;;;;;;;16.55;10.30;;;9.60;61.60;;;;;;5103683;28;20024;-65
2021/01/09 07:38:26;;;;;;;16.60;10.20;;;9.60;61.60;;;;;;5103755;28;20019;-65
2021/01/09 07:40:54;;;;;;;16.83;10.60;;;9.60;61.60;;;;;;5103653;28;20079;-68
2021/01/09 07:43:41;;;;;;;14.47;9.83;;;9.60;61.40;;;;;;5103684;28;20028;-68
2021/01/09 07:46:32;;;;;;;13.73;9.60;;;9.70;61.50;;;;;;5103602;28;20019;-66
2021/01/09 07:49:03;;;;;;;16.60;9.82;;;9.70;61.20;;;;;;5103494;28;20020;-67
2021/01/09 07:51:51;;;;;;;15.00;9.35;;;9.70;61.40;;;;;;5103439;28;20039;-66
2021/01/09 07:54:39;;;;;;;17.33;10.63;;;9.70;61.20;;;;;;5103335;28;20012;-65
2021/01/09 07:57:20;;;;;;;17.97;10.37;;;9.60;61.20;;;;;;5103469;28;20024;-66
2021/01/09 07:59:54;;;;;;;17.38;10.70;;;9.70;61.30;;;;;;5103338;28;20248;-66
2021/01/09 08:02:30;;;;;;;15.82;9.88;;;9.70;61.40;;;;;;5103242;28;20323;-66
2021/01/09 08:05:08;;;;;;;15.90;10.70;;;9.70;61.30;;;;;;5103312;28;20070;-65
2021/01/09 08:07:36;;;;;;;18.23;9.43;;;9.70;61.20;;;;;;5103278;28;20042;-68
2021/01/09 08:10:28;;;;;;;17.98;10.68;;;9.70;60.90;;;;;;5103103;28;20031;-67
2021/01/09 08:13:07;;;;;;;16.98;10.15;;;9.80;61.00;;;;;;5103168;28;20015;-68
2021/01/09 08:15:37;;;;;;;17.58;10.75;;;9.90;61.00;;;;;;5102903;28;20044;-68
2021/01/09 08:18:05;;;;;;;16.23;9.80;;;9.90;60.90;;;;;;5103025;28;20051;-66
2021/01/09 08:20:31;;;;;;;15.77;10.13;;;10.00;60.60;;;;;;5103001;28;20228;-67
2021/01/09 08:22:59;;;;;;;16.77;9.57;;;10.00;60.40;;;;;;5103000;28;20042;-65
2021/01/09 08:25:37;;;;;;;14.15;9.75;;;10.00;60.50;;;;;;5102903;28;20290;-67
2021/01/09 08:28:04;;;;;;;13.95;9.48;;;10.10;60.90;;;;;;5102948;28;20075;-68
2021/01/09 08:30:32;;;;;;;16.63;10.25;;;10.10;60.30;;;;;;5102807;28;20073;-68
2021/01/09 08:33:06;;;;;;;16.27;10.30;;;10.10;60.20;;;;;;5102770;28;20019;-67
2021/01/09 08:35:33;;;;;;;18.30;10.85;;;10.10;60.40;;;;;;5102558;28;20091;-68
2021/01/09 08:37:59;;;;;;;15.55;10.07;;;10.10;60.20;;;;;;5102682;28;20020;-67
2021/01/09 08:40:26;;;;;;;16.92;10.40;;;10.10;60.30;;;;;;5100997;28;20058;-66
2021/01/09 08:42:57;;;;;;;15.07;9.52;;;10.10;60.30;;;;;;5102596;28;20041;-67
2021/01/09 08:45:44;;;;;;;14.45;9.50;;;10.10;60.40;;;;;;5102560;28;20019;-68
2021/01/09 08:48:11;;;;;;;18.65;10.95;;;10.20;60.50;;;;;;5102570;28;20064;-66
2021/01/09 08:50:42;;;;;;;14.73;10.07;;;10.10;60.40;;;;;;5102150;28;20028;-68
2021/01/09 08:53:10;;;;;;;15.65;10.52;;;10.20;60.40;;;;;;5102450;28;20250;-65
2021/01/09 08:55:36;;;;;;;14.77;9.05;;;10.20;60.30;;;;;;5102371;28;20204;-65
2021/01/09 08:58:02;;;;;;;13.23;8.75;;;10.10;60.50;;;;;;5102359;28;20023;-67
2021/01/09 09:00:29;;;;;;;14.80;9.77;;;10.10;60.50;;;;;;5102325;28;20008;-67
2021/01/09 09:02:58;;;;;;;14.80;9.27;;;10.20;60.70;;;;;;5102315;28;20023;-65
2021/01/09 09:05:26;;;;;;;;;;;10.20;61.40;;;;;;5102831;28;20082;-66
2021/01/09 09:07:56;;;;;;;14.15;9.70;;;10.20;60.70;;;;;;5102225;28;20123;-68
2021/01/09 09:10:24;;;;;;;14.75;9.07;;;10.20;60.70;;;;;;5102293;28;20083;-67
2021/01/09 09:12:51;;;;;;;16.77;9.98;;;10.20;60.60;;;;;;5102185;28;20051;-65
2021/01/09 09:15:29;;;;;;;15.43;9.50;;;10.30;60.50;;;;;;5102030;28;20012;-68
2021/01/09 09:17:56;;;;;;;13.30;9.13;;;10.30;60.60;;;;;;5102247;28;20065;-66
2021/01/09 09:20:24;;;;;;;15.43;9.93;;;10.30;60.50;;;;;;5102108;28;20304;-66
2021/01/09 09:22:52;;;;;;;13.80;8.93;;;10.30;60.60;;;;;;5102134;28;20032;-66
2021/01/09 09:25:24;;;;;;;13.82;9.18;;;10.30;60.60;;;;;;5102085;28;20024;-67
2021/01/09 09:27:50;;;;;;;13.90;9.05;;;10.40;60.70;;;;;;5102039;28;20069;-67
2021/01/09 09:30:18;;;;;;;15.35;9.27;;;10.30;60.50;;;;;;5102139;28;20028;-66
2021/01/09 09:32:45;;;;;;;13.35;8.93;;;10.40;60.80;;;;;;5102100;28;20016;-68
2021/01/09 09:35:20;;;;;;;14.82;9.27;;;10.40;60.70;;;;;;5101920;28;20028;-66
2021/01/09 09:37:47;;;;;;;13.60;9.02;;;10.40;60.50;;;;;;5101997;28;20097;-66
2021/01/09 09:40:26;;;;;;;13.05;8.65;;;10.30;60.50;;;;;;5101985;28;20019;-66
2021/01/09 09:42:52;;;;;;;14.57;9.45;;;10.30;60.60;;;;;;5101895;28;20012;-67
2021/01/09 09:45:18;;;;;;;12.60;8.35;;;10.40;60.70;;;;;;5101933;28;20028;-67
2021/01/09 09:47:50;;;;;;;13.95;9.18;;;10.40;60.60;;;;;;5101894;28;20020;-67
2021/01/09 09:50:26;;;;;;;17.65;10.45;;;10.40;60.50;;;;;;5101880;28;20197;-66
2021/01/09 09:53:02;;;;;;;15.90;10.15;;;10.40;60.60;;;;;;5103828;28;20023;-68
2021/01/09 09:55:27;;;;;;;12.95;8.48;;;10.40;60.60;;;;;;5105970;28;20027;-66
2021/01/09 09:58:10;;;;;;;15.68;9.38;;;10.50;60.50;;;;;;5105720;28;20016;-67
2021/01/09 10:00:42;;;;;;;15.02;9.23;;;10.50;60.60;;;;;;5105643;28;20358;-67
2021/01/09 10:03:08;;;;;;;14.93;9.07;;;10.50;60.70;;;;;;5105587;28;20022;-65
2021/01/09 10:05:34;;;;;;;12.02;8.15;;;10.40;61.00;;;;;;5105649;28;20020;-67
2021/01/09 10:08:10;;;;;;;13.10;8.00;;;10.40;60.80;;;;;;5105517;28;20051;-65
2021/01/09 10:10:36;;;;;;;12.98;8.27;;;10.40;60.80;;;;;;5105495;28;20109;-65
2021/01/09 10:13:01;;;;;;;13.30;9.30;;;10.40;60.80;;;;;;5105440;28;20308;-66
2021/01/09 10:15:27;;;;;;;14.68;9.85;;;10.50;60.80;;;;;;5105114;28;20072;-65
2021/01/09 10:17:57;;;;;;;13.73;9.23;;;10.50;60.80;;;;;;5105404;28;20023;-65
2021/01/09 10:20:24;;;;;;;14.80;9.32;;;10.60;60.50;;;;;;5105374;28;20012;-66
2021/01/09 10:22:49;;;;;;;13.68;9.15;;;10.60;60.60;;;;;;5104084;28;20020;-68
2021/01/09 10:25:15;;;;;;;15.05;9.25;;;10.50;60.60;;;;;;5105242;28;20024;-65
2021/01/09 10:27:41;;;;;;;14.35;9.15;;;10.50;60.60;;;;;;5105104;28;20042;-66
2021/01/09 10:30:07;;;;;;;13.57;9.13;;;10.50;60.60;;;;;;5105100;28;20020;-66
2021/01/09 10:32:33;;;;;;;13.55;9.13;;;10.50;60.70;;;;;;5105079;28;20223;-66
2021/01/09 10:34:59;;;;;;;14.70;9.85;;;10.60;60.60;;;;;;5104931;28;20016;-64
2021/01/09 10:37:25;;;;;;;14.98;8.60;;;10.60;60.60;;;;;;5105015;28;20024;-67
2021/01/09 10:39:51;;;;;;;15.20;9.88;;;10.60;60.60;;;;;;5104882;28;20016;-67
2021/01/09 10:42:17;;;;;;;13.80;8.85;;;10.60;60.50;;;;;;5120714;28;20050;-66
2021/01/09 10:44:43;;;;;;;12.80;8.43;;;10.60;60.60;;;;;;5104807;28;20034;-66
2021/01/09 10:47:08;;;;;;;15.98;9.32;;;10.60;60.50;;;;;;5104770;28;20319;-65
2021/01/09 10:49:34;;;;;;;16.63;9.45;;;10.60;60.60;;;;;;5104752;28;20075;-68
2021/01/09 10:52:00;;;;;;;15.23;9.32;;;10.60;60.50;;;;;;5104650;28;20122;-68
2021/01/09 10:54:26;;;;;;;13.82;9.32;;;10.60;60.70;;;;;;5104558;28;20059;-65
2021/01/09 10:56:52;;;;;;;13.15;9.32;;;10.60;60.60;;;;;;5104608;28;20058;-66
2021/01/09 10:59:18;;;;;;;12.15;8.40;;;10.60;60.70;;;;;;5104541;28;20016;-66
2021/01/09 11:01:43;;;;;;;12.50;8.23;;;10.60;60.60;;;;;;5104538;28;20016;-67
2021/01/09 11:04:09;;;;;;;14.50;9.60;;;10.60;60.50;;;;;;5104009;28;20312;-65
2021/01/09 11:06:35;;;;;;;16.27;9.45;;;10.70;60.60;;;;;;5104454;28;20044;-65
2021/01/09 11:09:01;;;;;;;14.55;9.23;;;10.60;60.50;;;;;;5104376;28;20228;-68
2021/01/09 11:11:27;;;;;;;13.48;8.90;;;10.70;60.60;;;;;;5104343;28;20065;-66
2021/01/09 11:13:53;;;;;;;11.95;8.13;;;10.70;60.50;;;;;;5104229;28;20020;-66
2021/01/09 11:16:23;;;;;;;12.55;7.97;;;10.60;60.60;;;;;;5103978;28;20052;-67
2021/01/09 11:18:49;;;;;;;13.68;9.00;;;10.70;60.50;;;;;;5104179;28;20016;-66
2021/01/09 11:21:15;;;;;;;13.20;8.63;;;10.70;60.50;;;;;;5104155;28;20043;-67
2021/01/09 11:23:44;;;;;;;13.32;9.50;;;10.70;60.50;;;;;;5104050;28;20088;-66
2021/01/09 11:26:30;;;;;;;12.55;8.57;;;10.70;60.40;;;;;;5103994;28;20031;-65
2021/01/09 11:28:56;;;;;;;14.30;9.02;;;10.80;60.40;;;;;;5103726;28;20040;-67
2021/01/09 11:31:22;;;;;;;15.30;9.20;;;10.80;60.30;;;;;;5103895;28;20062;-66
2021/01/09 11:33:50;;;;;;;13.13;8.23;;;10.80;60.20;;;;;;5103849;28;20319;-65
2021/01/09 11:36:17;;;;;;;12.75;8.35;;;10.80;60.20;;;;;;5103776;28;20032;-66
2021/01/09 11:38:43;;;;;;;12.38;8.68;;;10.80;60.10;;;;;;5103795;28;20076;-67
2021/01/09 11:41:10;;;;;;;11.95;8.00;;;10.80;60.20;;;;;;5103759;28;20023;-65
2021/01/09 11:43:39;;;;;;;14.73;8.75;;;10.80;60.10;;;;;;5103695;28;20027;-67
2021/01/09 11:46:07;;;;;;;12.88;9.02;;;10.80;60.10;;;;;;5103710;28;20074;-67
2021/01/09 11:48:34;;;;;;;12.93;8.93;;;10.80;60.10;;;;;;5103613;28;20046;-67
2021/01/09 11:51:00;;;;;;;14.38;8.55;;;10.80;60.10;;;;;;5103490;28;20027;-66
2021/01/09 11:53:26;;;;;;;13.48;7.95;;;10.80;60.00;;;;;;5103442;28;20130;-68
2021/01/09 11:55:52;;;;;;;12.10;8.07;;;10.90;59.90;;;;;;5103360;28;20012;-68
2021/01/09 11:58:18;;;;;;;13.13;8.75;;;10.90;60.00;;;;;;5103396;28;20023;-66
2021/01/09 12:00:44;;;;;;;14.60;9.55;;;10.90;59.90;;;;;;5103341;28;20023;-68
2021/01/09 12:03:10;;;;;;;12.77;8.57;;;10.90;59.80;;;;;;5119103;28;20223;-68
2021/01/09 12:05:36;;;;;;;12.32;8.23;;;10.90;59.80;;;;;;5103269;28;20047;-67
2021/01/09 12:08:02;;;;;;;14.15;8.30;;;10.90;59.80;;;;;;5103393;28;20016;-68
2021/01/09 12:10:32;;;;;;;13.75;8.48;;;10.90;59.70;;;;;;5103124;28;20079;-67
2021/01/09 12:12:58;;;;;;;12.52;8.57;;;10.90;59.60;;;;;;5103099;28;20197;-67
2021/01/09 12:15:23;;;;;;;13.43;8.40;;;10.70;60.10;;;;;;5102157;28;20207;-67
2021/01/09 12:17:49;;;;;;;10.73;7.57;;;10.70;60.40;;;;;;5103003;28;20016;-66
2021/01/09 12:20:15;;;;;;;14.15;8.23;;;10.70;60.50;;;;;;5103051;28;20035;-65
2021/01/09 12:22:41;;;;;;;10.40;7.82;;;10.80;60.10;;;;;;5102927;28;20317;-65
2021/01/09 12:25:07;;;;;;;12.30;8.40;;;10.80;59.90;;;;;;5102925;28;20039;-66
2021/01/09 12:27:33;;;;;;;12.98;8.60;;;10.80;60.10;;;;;;5102898;28;20031;-67
2021/01/09 12:29:59;;;;;;;12.98;8.20;;;10.70;60.30;;;;;;5102813;28;20024;-67
2021/01/09 12:32:24;;;;;;;13.60;9.07;;;10.90;60.10;;;;;;5102811;28;20023;-69
2021/01/09 12:34:50;;;;;;;12.65;8.15;;;11.00;59.70;;;;;;5102618;28;20020;-67
2021/01/09 12:37:16;;;;;;;11.75;8.23;;;11.10;59.40;;;;;;5102754;28;20031;-67
2021/01/09 12:39:42;;;;;;;10.43;7.53;;;11.00;59.40;;;;;;5102626;28;20035;-66
2021/01/09 12:42:09;;;;;;;12.90;8.27;;;10.80;59.80;;;;;;5102672;28;20066;-66
2021/01/09 12:44:35;;;;;;;15.07;8.07;;;10.90;59.80;;;;;;5102645;28;20047;-67